Atwater, CA

1:22 AM PDT on October 23, 2014 (GMT -0700)
Merced Municipal-Macready | Change Station
CLOSE
Current Station
Airport
Location: Merced,
Elevation: 154 ft
Nearby Weather Stations

Elev 154 ft 37.28 °N, 120.51 °W | Updated 29 minutes ago

Clear
Clear
54 °F
Feels Like 54 °F
N
0
Wind Variable Wind from North

Today
High -- | Low -- °F
--% Chance of Precip.
Yesterday
High -- | Low -- °F
Precip. -- in
7:18 AM 6:14 PM
Waning Crescent, 0% visible
Pressure 30.02 in
Visibility 10.0 miles
Clouds Clear
Dew Point 42 °F
Humidity 64%
Rainfall 0.00 in
Snow Depth Not available.
UV 0 out of 12
Pollen 2.70 out of 12
Air Quality Not available.
Flu Activity Sporadic
METAR KMCE 230753Z AUTO 00000KT 10SM CLR 12/06 A3002 RMK AO2 SLP164 T01220056 402560078

More Conditions Fewer Conditions

Pressure 30.02 in
Visibility 10.0 miles
Clouds Clear
Dew Point 42 °F
Humidity 64%
Rainfall 0.00 in
Snow Depth Not available.
UV 0 out of 12
Pollen 2.70 out of 12
Air Quality Not available.
Flu Activity Sporadic
METAR KMCE 230753Z AUTO 00000KT 10SM CLR 12/06 A3002 RMK AO2 SLP164 T01220056 402560078

More Conditions Fewer Conditions

10-Day Weather Forecast

Almanac

Astronomy

Oct. 23, 2014 Rise Set
Actual Time 7:18 AM PDT 6:14 PM PDT
Civil Twilight 6:51 AM PDT 6:41 PM PDT
Nautical Twilight 6:21 AM PDT 7:11 PM PDT
Astronomical Twilight 5:50 AM PDT 7:42 PM PDT
Moon 7:03 AM PDT 6:19 PM PDT
Length of Visible Light 11h 49m
Length of Day
10h 56m
Tomorrow will be 2m 13s shorter.
Waning Crescent, 0% of the Moon is Illuminated
Today
Waning Crescent
Oct 23
New
Oct 30
First Quarter
Nov 6
Full
Nov 14
Last Quarter

Today's Extremes

State Highs State Lows

Community

WunderPhotos

Upload Photos

1,764,195 photos uploaded!

Nearby

Air Quality

  Air Quality AQ Index Pollutant
Wednesday Good
OZONE
Thursday Good
PM2.5
Friday Good
PM2.5
Saturday Good
PM2.5
Sunday Good
PM2.5
Monday Good
PM2.5

Snow Depth

Station Depth Elevation
Leavitt Lake 1 in 9400 ft
Sonora Pass 0 in 8800 ft
Leavitt Meadows 1 in 7200 ft
Virginia Lakes Ridge 0 in 9200 ft
Summit Meadow 1 in 9122 ft

Earthquake Activity

City Distance Mag. Time & Date
Kettleman City, California 112 miles 2.5 9:08 AM PDT
2014-10-22
Mammoth Lakes, California 100 miles 3.0 11:10 PM PDT
2014-10-20
Minimum magnitude displayed is 2.5.

Coastal Water Temperatures

Place Temperature
No Stations Reporting

Nearby Weather Stations